createdAt,value
2022-08-07T00:01:12.578Z,20.58
2022-08-07T00:06:29.499Z,20.64
2022-08-07T00:11:47.822Z,20.66
2022-08-07T00:16:57.147Z,20.76
2022-08-07T00:22:02.111Z,20.65
2022-08-07T00:27:07.797Z,20.76
2022-08-07T00:32:13.632Z,20.94
2022-08-07T00:37:16.210Z,21.08
2022-08-07T00:42:20.547Z,21.16
2022-08-07T00:48:08.218Z,21.09
2022-08-07T00:52:54.571Z,21.04
2022-08-07T00:57:57.870Z,20.91
2022-08-07T01:03:00.461Z,20.60
2022-08-07T01:08:03.863Z,20.44
2022-08-07T01:13:07.108Z,20.38
2022-08-07T01:18:09.737Z,20.48
2022-08-07T01:23:16.553Z,20.46
2022-08-07T01:28:28.987Z,20.55
2022-08-07T01:33:55.191Z,20.62
2022-08-07T01:38:59.002Z,20.45
2022-08-07T01:44:03.505Z,20.45
2022-08-07T01:49:11.894Z,20.48
2022-08-07T01:54:36.438Z,20.58
2022-08-07T01:59:47.152Z,20.58
2022-08-07T02:04:58.398Z,20.53
2022-08-07T02:10:08.791Z,20.49
2022-08-07T02:15:22.974Z,20.43
2022-08-07T02:20:28.952Z,20.53
2022-08-07T02:26:31.202Z,20.60
2022-08-07T02:31:28.492Z,20.62
2022-08-07T02:36:31.790Z,20.62
2022-08-07T02:41:50.481Z,20.63
2022-08-07T02:47:00.895Z,20.64
2022-08-07T02:52:10.636Z,20.69
2022-08-07T02:57:19.678Z,20.58
2022-08-07T03:02:25.495Z,20.59
2022-08-07T03:08:05.262Z,20.56
2022-08-07T03:12:57.785Z,20.64
2022-08-07T03:18:05.976Z,20.69
2022-08-07T03:23:19.165Z,20.78
2022-08-07T03:28:37.486Z,20.78
2022-08-07T03:33:43.285Z,20.74
2022-08-07T03:38:48.355Z,20.79
2022-08-07T03:43:57.238Z,20.84
2022-08-07T03:49:04.668Z,20.88
2022-08-07T03:54:35.191Z,20.88
2022-08-07T04:00:01.283Z,20.93
2022-08-07T04:05:05.456Z,21.00
2022-08-07T04:10:15.393Z,21.09
2022-08-07T04:15:23.931Z,21.16
2022-08-07T04:20:29.343Z,21.21
2022-08-07T04:25:39.152Z,21.36
2022-08-07T04:30:57.157Z,21.51
2022-08-07T04:36:09.316Z,21.63
2022-08-07T04:41:19.201Z,21.77
2022-08-07T04:46:40.012Z,21.84
2022-08-07T04:52:07.915Z,22.04
2022-08-07T04:58:13.687Z,22.23
2022-08-07T05:02:52.187Z,22.37
2022-08-07T05:08:00.765Z,22.53
2022-08-07T05:14:44.753Z,22.74
2022-08-07T05:18:35.633Z,22.98
2022-08-07T05:23:41.971Z,23.19
2022-08-07T05:28:50.323Z,23.51
2022-08-07T05:34:04.934Z,23.72
2022-08-07T05:40:07.141Z,23.90
2022-08-07T05:44:46.492Z,24.07
2022-08-07T05:49:57.605Z,24.31
2022-08-07T05:55:10.463Z,24.53
2022-08-07T06:00:19.312Z,24.78
2022-08-07T06:05:32.870Z,25.01
2022-08-07T06:10:43.633Z,25.27
2022-08-07T06:15:49.908Z,25.43
2022-08-07T06:22:15.860Z,25.63
2022-08-07T06:26:27.451Z,25.88
2022-08-07T06:31:46.951Z,26.07
2022-08-07T06:36:55.267Z,26.34
2022-08-07T06:42:07.660Z,26.50
2022-08-07T06:47:48.323Z,26.61
2022-08-07T06:54:11.718Z,26.80
2022-08-07T06:58:34.499Z,26.93
2022-08-07T07:03:48.853Z,27.02
2022-08-07T07:08:54.394Z,27.32
2022-08-07T07:14:02.209Z,27.49
2022-08-07T07:19:54.364Z,27.72
2022-08-07T07:24:32.153Z,27.92
2022-08-07T07:29:56.217Z,28.03
2022-08-07T07:35:03.956Z,28.27
2022-08-07T07:40:15.561Z,28.45
2022-08-07T07:45:22.801Z,28.52
2022-08-07T07:50:46.676Z,28.84
2022-08-07T07:56:00.669Z,29.13
2022-08-07T08:02:01.530Z,29.20
2022-08-07T08:06:29.038Z,29.27
2022-08-07T08:11:59.250Z,29.54
2022-08-07T08:17:56.447Z,29.84
2022-08-07T08:22:55.707Z,30.07
2022-08-07T08:28:03.920Z,30.22
2022-08-07T08:33:10.305Z,30.01
2022-08-07T08:38:21.601Z,29.67
2022-08-07T08:43:42.031Z,29.61
2022-08-07T08:48:54.516Z,30.34
2022-08-07T08:54:04.597Z,30.46
2022-08-07T08:59:17.260Z,30.17
2022-08-07T09:04:30.391Z,30.35
2022-08-07T09:09:47.737Z,30.74
2022-08-07T09:16:24.255Z,30.03
2022-08-07T09:20:35.244Z,30.99
2022-08-07T09:25:54.493Z,31.46
2022-08-07T09:31:03.944Z,31.58
2022-08-07T09:36:15.220Z,30.46
2022-08-07T09:41:28.565Z,29.97
2022-08-07T09:47:51.361Z,29.84
2022-08-07T09:52:35.462Z,30.91
2022-08-07T09:58:16.732Z,31.58
2022-08-07T10:04:06.114Z,31.65
2022-08-07T10:09:42.951Z,32.02
2022-08-07T10:15:15.345Z,32.39
2022-08-07T10:20:39.335Z,32.39
2022-08-07T10:26:01.567Z,32.71
2022-08-07T10:31:20.076Z,31.84
2022-08-07T10:36:38.896Z,32.40
2022-08-07T10:41:53.271Z,32.91
2022-08-07T10:47:26.636Z,32.45
2022-08-07T10:52:42.654Z,32.71
2022-08-07T10:58:03.864Z,32.85
2022-08-07T11:03:15.483Z,31.76
2022-08-07T11:08:32.524Z,32.93
2022-08-07T11:14:42.685Z,32.96
2022-08-07T11:19:10.167Z,32.87
2022-08-07T11:24:22.080Z,31.65
2022-08-07T11:29:42.925Z,32.68
2022-08-07T11:34:50.952Z,33.20
2022-08-07T11:40:11.298Z,33.66
2022-08-07T11:45:35.406Z,31.80
2022-08-07T11:50:57.906Z,32.48
2022-08-07T11:56:26.659Z,33.16
2022-08-07T12:02:00.998Z,33.76
2022-08-07T12:07:20.233Z,33.05
2022-08-07T12:12:37.994Z,33.35
2022-08-07T12:17:58.962Z,33.30
2022-08-07T12:24:06.129Z,33.37
2022-08-07T12:28:53.885Z,33.63
2022-08-07T12:34:01.796Z,33.85
2022-08-07T12:39:09.493Z,34.01
2022-08-07T12:44:32.894Z,33.99
2022-08-07T12:49:51.715Z,34.06
2022-08-07T12:55:05.221Z,33.99
2022-08-07T13:00:20.997Z,33.98
2022-08-07T13:06:04.081Z,33.60
2022-08-07T13:11:24.751Z,33.56
2022-08-07T13:16:37.737Z,33.55
2022-08-07T13:21:54.951Z,33.59
2022-08-07T13:27:13.459Z,33.30
2022-08-07T13:32:32.368Z,33.37
2022-08-07T13:37:55.513Z,33.14
2022-08-07T13:43:05.658Z,33.11
2022-08-07T13:48:27.416Z,33.11
2022-08-07T13:54:00.516Z,33.08
2022-08-07T13:59:13.248Z,33.09
2022-08-07T14:04:21.437Z,33.22
2022-08-07T14:10:14.897Z,33.02
2022-08-07T14:15:02.407Z,33.04
2022-08-07T14:20:41.260Z,32.80
2022-08-07T14:25:47.964Z,32.54
2022-08-07T14:30:53.099Z,32.35
2022-08-07T14:36:01.247Z,32.15
2022-08-07T14:41:12.394Z,31.92
2022-08-07T14:46:30.533Z,31.84
2022-08-07T14:52:04.791Z,31.87
2022-08-07T14:57:14.919Z,31.63
2022-08-07T15:07:50.831Z,31.45
2022-08-07T15:12:54.633Z,31.28
2022-08-07T15:18:14.420Z,31.17
2022-08-07T15:25:15.442Z,31.02
2022-08-07T15:30:06.372Z,30.88
2022-08-07T15:34:28.029Z,30.90
2022-08-07T15:45:09.424Z,30.56
2022-08-07T15:55:53.654Z,30.38
2022-08-07T16:01:08.986Z,30.17
2022-08-07T16:06:14.374Z,30.04
2022-08-07T16:11:40.184Z,29.93
2022-08-07T16:16:57.039Z,29.65
2022-08-07T16:22:17.924Z,29.66
2022-08-07T16:27:44.222Z,29.49
2022-08-07T16:32:54.615Z,29.35
2022-08-07T16:38:59.994Z,29.02
2022-08-07T16:44:57.269Z,28.87
2022-08-07T16:50:36.906Z,28.87
2022-08-07T16:55:53.795Z,28.54
2022-08-07T17:01:19.095Z,28.37
2022-08-07T17:06:58.094Z,28.20
2022-08-07T17:12:44.765Z,28.10
2022-08-07T17:17:50.468Z,27.95
2022-08-07T17:23:08.563Z,27.77
2022-08-07T17:28:22.410Z,27.57
2022-08-07T17:34:09.757Z,27.43
2022-08-07T17:39:10.479Z,27.13
2022-08-07T17:44:33.980Z,27.01
2022-08-07T17:49:58.642Z,26.88
2022-08-07T17:55:12.606Z,26.66
2022-08-07T18:00:32.975Z,26.52
2022-08-07T18:06:03.549Z,26.46
2022-08-07T18:12:17.962Z,26.21
2022-08-07T18:16:58.047Z,26.22
2022-08-07T18:22:15.241Z,25.99
2022-08-07T18:27:38.345Z,25.76
2022-08-07T18:33:22.281Z,25.52
2022-08-07T18:38:56.080Z,25.48
2022-08-07T18:44:12.863Z,25.26
2022-08-07T18:50:19.375Z,25.06
2022-08-07T18:54:58.941Z,24.90
2022-08-07T19:00:34.613Z,24.82
2022-08-07T19:06:03.266Z,24.90
2022-08-07T19:11:35.130Z,24.85
2022-08-07T19:17:04.826Z,24.71
2022-08-07T19:22:30.363Z,24.65
2022-08-07T19:28:56.497Z,24.58
2022-08-07T19:33:13.094Z,24.57
2022-08-07T19:38:21.110Z,24.53
2022-08-07T19:43:49.272Z,24.44
2022-08-07T19:49:06.423Z,24.19
2022-08-07T19:54:32.522Z,24.17
2022-08-07T19:59:40.919Z,24.04
2022-08-07T20:04:50.205Z,23.96
2022-08-07T20:10:35.528Z,23.93
2022-08-07T20:15:32.943Z,23.87
2022-08-07T20:20:43.691Z,23.79
2022-08-07T20:25:51.141Z,23.68
2022-08-07T20:30:58.649Z,23.64
2022-08-07T20:36:07.878Z,23.49
2022-08-07T20:41:14.981Z,23.43
2022-08-07T20:46:25.958Z,23.40
2022-08-07T20:51:40.656Z,23.30
2022-08-07T20:56:56.855Z,23.24
2022-08-07T21:02:04.626Z,23.29
2022-08-07T21:07:23.387Z,23.30
2022-08-07T21:12:31.397Z,23.27
2022-08-07T21:18:02.818Z,23.09
2022-08-07T21:23:09.086Z,22.97
2022-08-07T21:28:47.627Z,23.01
2022-08-07T21:33:46.163Z,22.80
2022-08-07T21:39:03.011Z,22.46
2022-08-07T21:44:37.240Z,22.52
2022-08-07T21:50:02.154Z,22.66
2022-08-07T21:55:29.932Z,22.62
2022-08-07T22:00:34.879Z,22.59
2022-08-07T22:05:49.936Z,22.81
2022-08-07T22:11:00.814Z,22.83
2022-08-07T22:16:45.175Z,22.73
2022-08-07T22:22:05.177Z,22.47
2022-08-07T22:27:15.976Z,22.45
2022-08-07T22:32:27.813Z,22.44
2022-08-07T22:38:01.942Z,22.42
2022-08-07T22:43:12.900Z,22.39
2022-08-07T22:48:54.928Z,22.52
2022-08-07T22:54:07.450Z,22.51
2022-08-07T22:59:50.275Z,22.32
2022-08-07T23:06:09.012Z,22.14
2022-08-07T23:10:42.542Z,22.08
2022-08-07T23:16:06.385Z,22.23
2022-08-07T23:21:29.868Z,22.25
2022-08-07T23:26:56.281Z,22.10
2022-08-07T23:34:19.635Z,22.27
2022-08-07T23:38:14.392Z,22.13
2022-08-07T23:43:51.291Z,21.93
2022-08-07T23:49:49.925Z,21.95
2022-08-07T23:55:00.801Z,21.99
